Time;durP1;ratioP1;P1;durP2;ratioP2;P2;SDS_P1;SDS_P2;PMS_P1;PMS_P2;Temp;Humidity;BMP_temperature;BMP_pressure;BME280_temperature;BME280_humidity;BME280_pressure;Samples;Min_cycle;Max_cycle;Signal;HPM_P1;HPM_P2
2022/11/21 00:02:10;;;;;;;7.07;4.20;;;10.10;96.70;;;;;;5045926;28;20135;-70
2022/11/21 00:04:37;;;;;;;5.82;4.20;;;10.00;96.70;;;;;;5063331;28;20044;-70
2022/11/21 00:07:05;;;;;;;4.68;3.58;;;9.90;96.70;;;;;;5045961;28;20207;-70
2022/11/21 00:09:35;;;;;;;5.22;3.38;;;9.80;96.70;;;;;;5061735;28;20473;-69
2022/11/21 00:12:03;;;;;;;5.50;3.85;;;9.80;96.70;;;;;;5062760;28;20076;-70
2022/11/21 00:14:33;;;;;;;5.65;3.63;;;9.90;96.70;;;;;;5063160;28;20102;-69
2022/11/21 00:17:02;;;;;;;6.15;3.72;;;9.90;96.70;;;;;;5062614;28;20040;-69
2022/11/21 00:19:32;;;;;;;5.03;3.33;;;9.90;96.70;;;;;;5063275;28;20128;-69
2022/11/21 00:21:59;;;;;;;5.68;3.38;;;10.00;96.70;;;;;;5062948;28;20050;-69
2022/11/21 00:24:27;;;;;;;5.10;3.50;;;10.10;96.70;;;;;;5060481;28;20044;-70
2022/11/21 00:26:56;;;;;;;5.25;3.28;;;10.00;96.70;;;;;;5061473;28;20045;-70
2022/11/21 00:29:24;;;;;;;3.58;2.67;;;10.10;96.70;;;;;;5062057;28;20102;-70
2022/11/21 00:31:52;;;;;;;4.10;2.95;;;10.10;96.70;;;;;;5062035;28;20041;-69
2022/11/21 00:34:21;;;;;;;5.15;2.97;;;10.20;96.70;;;;;;5058549;28;20140;-70
2022/11/21 00:36:49;;;;;;;4.43;3.00;;;10.00;96.70;;;;;;5062513;28;20113;-70
2022/11/21 00:39:17;;;;;;;4.45;2.65;;;10.00;96.70;;;;;;5061856;28;20051;-70
2022/11/21 00:41:45;;;;;;;3.22;2.35;;;10.10;96.70;;;;;;5063051;28;20063;-69
2022/11/21 00:44:13;;;;;;;3.35;2.70;;;10.10;96.70;;;;;;5061087;28;20040;-70
2022/11/21 00:46:41;;;;;;;4.40;2.63;;;10.10;96.70;;;;;;5058757;28;20044;-70
2022/11/21 00:49:09;;;;;;;3.85;2.50;;;10.10;96.70;;;;;;5063296;28;20052;-70
2022/11/21 00:51:38;;;;;;;3.42;2.35;;;10.10;96.70;;;;;;5062631;28;20145;-69
2022/11/21 00:54:08;;;;;;;5.15;2.55;;;10.10;96.70;;;;;;5058639;28;20475;-70
2022/11/21 00:56:35;;;;;;;4.15;2.40;;;10.10;96.70;;;;;;5062738;28;20109;-70
2022/11/21 00:59:03;;;;;;;5.15;2.40;;;10.10;96.70;;;;;;5062168;28;20048;-70
2022/11/21 01:01:32;;;;;;;4.35;2.65;;;10.00;96.70;;;;;;5061604;28;20410;-70
2022/11/21 01:03:59;;;;;;;3.78;2.38;;;9.90;96.70;;;;;;5062769;28;20481;-70
2022/11/21 01:06:28;;;;;;;4.57;2.58;;;9.90;96.70;;;;;;5061530;28;20048;-70
2022/11/21 01:08:57;;;;;;;4.03;2.45;;;9.80;96.70;;;;;;5044034;28;20063;-70
2022/11/21 01:11:25;;;;;;;4.90;2.58;;;9.70;96.70;;;;;;5061353;28;20052;-70
2022/11/21 01:13:53;;;;;;;2.85;2.45;;;9.60;96.70;;;;;;5061883;28;20612;-70
2022/11/21 01:16:23;;;;;;;3.22;2.35;;;9.50;96.70;;;;;;5061637;28;20051;-70
2022/11/21 01:18:51;;;;;;;4.13;3.10;;;9.70;96.70;;;;;;5061467;28;20043;-70
2022/11/21 01:21:21;;;;;;;3.80;2.45;;;9.80;96.70;;;;;;5060597;28;20094;-69
2022/11/21 01:23:50;;;;;;;3.60;2.70;;;9.70;96.70;;;;;;5062372;28;20044;-70
2022/11/21 01:26:21;;;;;;;3.88;2.83;;;9.70;96.70;;;;;;5060444;28;20485;-70
2022/11/21 01:28:50;;;;;;;4.35;2.85;;;9.70;96.70;;;;;;5056193;28;20044;-70
2022/11/21 01:31:20;;;;;;;4.53;2.13;;;9.60;96.70;;;;;;5060294;28;20465;-70
2022/11/21 01:33:48;;;;;;;3.90;2.58;;;9.60;96.70;;;;;;5062357;28;20481;-69
2022/11/21 01:36:18;;;;;;;3.78;2.47;;;9.60;96.70;;;;;;5062176;28;20140;-70
2022/11/21 01:39:03;;;;;;;5.03;2.78;;;9.50;96.70;;;;;;5062064;28;20090;-70
2022/11/21 01:41:34;;;;;;;4.35;2.47;;;9.50;96.70;;;;;;5063004;28;20037;-69
2022/11/21 01:44:12;;;;;;;4.05;2.83;;;9.50;96.70;;;;;;5058549;28;20040;-69
2022/11/21 01:46:40;;;;;;;5.13;2.70;;;9.50;96.70;;;;;;5062034;28;20063;-70
2022/11/21 01:49:11;;;;;;;3.47;2.47;;;9.60;96.70;;;;;;5060803;28;21276;-70
2022/11/21 01:51:42;;;;;;;4.93;2.63;;;9.60;96.70;;;;;;5062712;28;20130;-69
2022/11/21 01:54:13;;;;;;;3.75;2.50;;;9.50;96.70;;;;;;5059929;28;20478;-69
2022/11/21 01:56:46;;;;;;;4.70;2.63;;;9.40;96.70;;;;;;5062138;28;20056;-69
2022/11/21 01:59:19;;;;;;;4.78;2.30;;;9.40;96.70;;;;;;5057315;28;20071;-69
2022/11/21 02:01:50;;;;;;;6.13;2.78;;;9.40;96.70;;;;;;5062100;28;20049;-69
2022/11/21 02:04:18;;;;;;;4.75;2.33;;;8.90;96.70;;;;;;5061630;28;20046;-70
2022/11/21 02:06:46;;;;;;;3.65;2.20;;;8.40;96.70;;;;;;5062511;28;20048;-70
2022/11/21 02:09:14;;;;;;;5.25;2.58;;;8.50;96.70;;;;;;5060462;28;20056;-69
2022/11/21 02:11:48;;;;;;;3.30;2.13;;;8.80;96.70;;;;;;5058379;28;20041;-70
2022/11/21 02:14:16;;;;;;;3.97;2.58;;;9.00;96.70;;;;;;5061412;28;20052;-69
2022/11/21 02:16:45;;;;;;;3.00;2.05;;;9.10;96.70;;;;;;5061209;28;20139;-70
2022/11/21 02:19:19;;;;;;;4.30;2.28;;;9.20;96.70;;;;;;5061383;28;20048;-70
2022/11/21 02:21:56;;;;;;;4.78;2.80;;;9.30;96.70;;;;;;5066451;28;20127;-69
2022/11/21 02:24:31;;;;;;;6.03;2.40;;;9.20;96.70;;;;;;5066333;28;20139;-69
2022/11/21 02:27:01;;;;;;;3.85;2.38;;;9.20;96.70;;;;;;5065700;28;20079;-69
2022/11/21 02:29:30;;;;;;;4.32;2.50;;;9.30;96.70;;;;;;5065370;28;20562;-69
2022/11/21 02:31:59;;;;;;;3.65;2.33;;;9.20;96.70;;;;;;5064141;28;20309;-70
2022/11/21 02:34:27;;;;;;;6.53;2.40;;;9.20;96.70;;;;;;5064637;28;20484;-70
2022/11/21 02:36:55;;;;;;;4.47;2.85;;;9.10;96.70;;;;;;5065114;28;20044;-70
2022/11/21 02:39:29;;;;;;;4.15;2.60;;;9.10;96.70;;;;;;5061496;28;20045;-70
2022/11/21 02:42:05;;;;;;;3.88;2.60;;;9.10;96.70;;;;;;5063700;28;20451;-70
2022/11/21 02:44:42;;;;;;;3.70;2.70;;;9.10;96.70;;;;;;5063995;28;20052;-70
2022/11/21 02:47:09;;;;;;;;;;;9.10;96.70;;;;;;5063466;28;20044;-70
2022/11/21 02:49:43;;;;;;;6.75;2.75;;;9.10;96.70;;;;;;5065398;28;19924;-69
2022/11/21 02:52:11;;;;;;;4.93;2.60;;;9.10;96.70;;;;;;5063109;28;20079;-70
2022/11/21 02:54:39;;;;;;;3.63;2.90;;;9.10;96.70;;;;;;5064535;28;20048;-69
2022/11/21 02:57:08;;;;;;;6.70;3.00;;;9.10;96.70;;;;;;5064133;28;21009;-70
2022/11/21 02:59:36;;;;;;;5.03;2.85;;;9.10;96.70;;;;;;5064926;28;20540;-70
2022/11/21 03:02:05;;;;;;;4.93;3.05;;;9.10;96.70;;;;;;5064222;28;20082;-70
2022/11/21 03:04:33;;;;;;;5.68;3.40;;;8.90;96.70;;;;;;5063987;28;20094;-70
2022/11/21 03:07:01;;;;;;;3.70;2.90;;;8.90;96.70;;;;;;5064406;28;20068;-69
2022/11/21 03:09:29;;;;;;;4.20;3.20;;;8.80;96.70;;;;;;5064410;28;20044;-70
2022/11/21 03:11:58;;;;;;;6.30;3.60;;;8.80;96.70;;;;;;5064252;28;20463;-69
2022/11/21 03:14:27;;;;;;;4.72;3.00;;;8.80;96.70;;;;;;5063727;28;20067;-69
2022/11/21 03:16:56;;;;;;;6.90;3.03;;;8.70;96.70;;;;;;5063290;28;20044;-70
2022/11/21 03:19:24;;;;;;;4.13;3.30;;;8.70;96.70;;;;;;5063534;28;20037;-69
2022/11/21 03:21:52;;;;;;;5.07;3.25;;;8.80;96.70;;;;;;5063900;28;20049;-69
2022/11/21 03:24:20;;;;;;;4.07;3.13;;;8.80;96.70;;;;;;5063332;28;20138;-70
2022/11/21 03:26:48;;;;;;;5.10;2.97;;;8.90;96.70;;;;;;5045927;28;20119;-69
2022/11/21 03:29:16;;;;;;;5.90;3.28;;;8.90;96.70;;;;;;5061811;28;20045;-69
2022/11/21 03:31:46;;;;;;;4.68;3.55;;;8.90;96.70;;;;;;5063814;28;20048;-69
2022/11/21 03:34:14;;;;;;;7.28;3.20;;;8.90;96.70;;;;;;5062021;28;20431;-69
2022/11/21 03:36:42;;;;;;;6.07;3.15;;;9.00;96.70;;;;;;5064283;28;20049;-69
2022/11/21 03:39:10;;;;;;;4.10;3.17;;;8.80;96.70;;;;;;5063843;28;20050;-70
2022/11/21 03:41:38;;;;;;;4.72;3.13;;;8.90;96.70;;;;;;5064673;28;20109;-69
2022/11/21 03:44:08;;;;;;;5.13;3.15;;;8.90;96.70;;;;;;5062060;28;20052;-69
2022/11/21 03:46:38;;;;;;;4.15;2.97;;;8.80;96.70;;;;;;5046416;28;20048;-69
2022/11/21 03:49:08;;;;;;;3.38;2.70;;;8.80;96.70;;;;;;5063246;28;20045;-69
2022/11/21 03:51:37;;;;;;;5.35;3.30;;;8.70;96.70;;;;;;5063007;28;20720;-70
2022/11/21 03:54:06;;;;;;;5.90;3.20;;;8.80;96.70;;;;;;5063583;28;20133;-70
2022/11/21 03:56:35;;;;;;;3.25;2.78;;;8.80;96.70;;;;;;5063219;28;20086;-70
2022/11/21 03:59:03;;;;;;;5.03;2.88;;;8.80;96.70;;;;;;5063045;28;20037;-70
2022/11/21 04:01:31;;;;;;;3.92;2.83;;;8.90;96.70;;;;;;5045000;28;20060;-69
2022/11/21 04:04:04;;;;;;;5.68;3.17;;;8.90;96.70;;;;;;5061750;28;20055;-70
2022/11/21 04:06:34;;;;;;;4.63;3.08;;;8.80;96.70;;;;;;5064072;28;20032;-70
2022/11/21 04:09:02;;;;;;;4.45;2.80;;;8.80;96.70;;;;;;5061436;28;20060;-70
2022/11/21 04:11:30;;;;;;;5.30;2.95;;;8.80;96.70;;;;;;5066610;28;20090;-70
2022/11/21 04:13:58;;;;;;;3.55;3.08;;;8.90;96.70;;;;;;5062690;28;20083;-70
2022/11/21 04:16:26;;;;;;;3.65;2.47;;;8.80;96.70;;;;;;5062515;28;20074;-70
2022/11/21 04:18:54;;;;;;;7.00;2.63;;;8.80;96.70;;;;;;5061474;28;20045;-70
2022/11/21 04:21:22;;;;;;;4.25;2.72;;;8.90;96.70;;;;;;5064096;28;20051;-70
2022/11/21 04:23:52;;;;;;;3.92;2.60;;;9.00;96.70;;;;;;5044974;28;20048;-70
2022/11/21 04:26:20;;;;;;;5.18;2.75;;;9.10;96.70;;;;;;5063949;28;20052;-70
2022/11/21 04:28:48;;;;;;;4.18;2.72;;;9.00;96.70;;;;;;5061614;28;20055;-70
2022/11/21 04:31:16;;;;;;;4.18;2.72;;;8.90;96.70;;;;;;5060338;28;20059;-70
2022/11/21 04:33:44;;;;;;;4.40;2.85;;;8.80;96.70;;;;;;5063054;28;20051;-70
2022/11/21 04:36:12;;;;;;;4.90;2.70;;;8.80;96.70;;;;;;5042219;28;20040;-68
2022/11/21 04:38:41;;;;;;;5.15;2.50;;;8.80;96.70;;;;;;5060835;28;20119;-68
2022/11/21 04:41:10;;;;;;;4.75;2.65;;;8.60;96.70;;;;;;5062271;28;20578;-68
2022/11/21 04:43:38;;;;;;;4.97;3.03;;;8.60;96.70;;;;;;5061893;28;20040;-68
2022/11/21 04:46:06;;;;;;;3.55;2.25;;;8.60;96.70;;;;;;5061294;28;20049;-68
2022/11/21 04:48:35;;;;;;;3.40;2.17;;;8.70;96.70;;;;;;5063234;28;20048;-68
2022/11/21 04:51:03;;;;;;;3.80;2.85;;;8.70;96.70;;;;;;5062619;28;20415;-68
2022/11/21 04:53:31;;;;;;;4.07;2.63;;;8.70;96.70;;;;;;5061908;28;20406;-70
2022/11/21 04:56:01;;;;;;;4.95;2.90;;;8.70;96.70;;;;;;5060586;28;20456;-70
2022/11/21 04:58:31;;;;;;;4.75;2.83;;;8.70;96.70;;;;;;5060705;28;20044;-70
2022/11/21 05:01:06;;;;;;;4.30;2.35;;;8.60;96.70;;;;;;5059984;28;20040;-70
2022/11/21 05:03:34;;;;;;;3.55;2.72;;;8.60;96.70;;;;;;5061393;28;20544;-70
2022/11/21 05:06:02;;;;;;;4.68;2.60;;;8.60;96.70;;;;;;5061970;28;20051;-70
2022/11/21 05:08:31;;;;;;;4.78;2.60;;;8.60;96.70;;;;;;5060325;28;20051;-70
2022/11/21 05:13:46;;;;;;;4.33;2.73;;;8.60;96.70;;;;;;5060258;28;20280;-70
2022/11/21 05:16:14;;;;;;;4.50;2.63;;;8.60;96.70;;;;;;5061306;28;20494;-70
2022/11/21 05:18:42;;;;;;;5.20;2.80;;;8.60;96.70;;;;;;5060728;28;20075;-70
2022/11/21 05:21:11;;;;;;;5.53;2.78;;;8.60;96.70;;;;;;5060352;28;20094;-70
2022/11/21 05:23:39;;;;;;;3.85;2.72;;;8.50;96.70;;;;;;5062802;28;20719;-70
2022/11/21 05:26:07;;;;;;;4.55;2.60;;;8.50;96.70;;;;;;5060257;28;20044;-69
2022/11/21 05:28:35;;;;;;;3.28;2.50;;;8.50;96.70;;;;;;5057468;28;20398;-70
2022/11/21 05:31:05;;;;;;;3.70;2.60;;;8.40;96.70;;;;;;5060232;28;20032;-70
2022/11/21 05:33:33;;;;;;;4.50;2.55;;;8.40;96.70;;;;;;5061389;28;20490;-69
2022/11/21 05:36:01;;;;;;;4.63;2.42;;;8.50;96.70;;;;;;5061236;28;20113;-70
2022/11/21 05:38:29;;;;;;;3.20;2.45;;;8.60;96.70;;;;;;5062762;28;20056;-69
2022/11/21 05:40:56;;;;;;;4.55;2.50;;;8.60;96.70;;;;;;5060955;28;20449;-70
2022/11/21 05:46:15;;;;;;;5.93;3.58;;;8.40;96.70;;;;;;5058764;28;20106;-69
2022/11/21 05:48:43;;;;;;;3.47;2.60;;;8.60;96.70;;;;;;5061490;28;20071;-69
2022/11/21 05:51:12;;;;;;;3.95;2.22;;;8.60;96.70;;;;;;5060675;28;20036;-69
2022/11/21 05:53:40;;;;;;;4.45;2.22;;;8.50;96.70;;;;;;5060974;28;20437;-69
2022/11/21 05:56:10;;;;;;;4.28;2.45;;;8.40;96.70;;;;;;5061824;28;20063;-69
2022/11/21 05:58:38;;;;;;;3.58;2.30;;;8.40;96.70;;;;;;5061264;28;20114;-69
2022/11/21 06:01:08;;;;;;;8.60;2.72;;;8.50;96.70;;;;;;5060056;28;20549;-69
2022/11/21 06:03:39;;;;;;;4.13;2.35;;;8.60;96.70;;;;;;5058537;28;20684;-69
2022/11/21 06:06:09;;;;;;;3.97;2.80;;;8.70;96.70;;;;;;5056588;28;20247;-69
2022/11/21 06:08:39;;;;;;;6.10;4.03;;;8.70;96.70;;;;;;5057539;28;20054;-69
2022/11/21 06:11:09;;;;;;;11.50;5.97;;;8.70;96.70;;;;;;5044180;28;20048;-69
2022/11/21 06:13:37;;;;;;;12.15;6.20;;;8.70;96.70;;;;;;5060625;28;20036;-69
2022/11/21 06:16:07;;;;;;;10.50;5.63;;;8.80;96.70;;;;;;5059236;28;20056;-69
2022/11/21 06:18:38;;;;;;;7.07;4.28;;;8.80;96.70;;;;;;5061317;28;20452;-69
2022/11/21 06:21:08;;;;;;;8.02;4.47;;;8.80;96.70;;;;;;5054264;28;20076;-69
2022/11/21 06:23:36;;;;;;;4.07;3.47;;;8.70;96.70;;;;;;5060909;28;20508;-69
2022/11/21 06:26:05;;;;;;;6.05;2.92;;;8.60;96.70;;;;;;5062097;28;20044;-69
2022/11/21 06:28:34;;;;;;;4.15;3.25;;;8.70;96.70;;;;;;5061215;28;20033;-69
2022/11/21 06:31:03;;;;;;;9.43;3.70;;;8.70;96.70;;;;;;5061453;28;20911;-69
2022/11/21 06:33:31;;;;;;;4.10;2.95;;;8.80;96.70;;;;;;5059064;28;20040;-69
2022/11/21 06:36:03;;;;;;;4.53;2.88;;;8.80;96.70;;;;;;5061970;28;20370;-69
2022/11/21 06:38:31;;;;;;;7.55;3.58;;;8.80;96.70;;;;;;5060784;28;20049;-69
2022/11/21 06:41:03;;;;;;;6.88;3.13;;;8.90;96.70;;;;;;5061606;28;20040;-69
2022/11/21 06:43:31;;;;;;;5.28;3.10;;;8.90;96.70;;;;;;5060221;28;20102;-69
2022/11/21 06:46:02;;;;;;;4.78;2.90;;;8.90;96.70;;;;;;5059380;28;20040;-69
2022/11/21 06:48:36;;;;;;;9.48;4.30;;;9.00;96.70;;;;;;5060961;28;20048;-69
2022/11/21 06:51:06;;;;;;;5.88;3.08;;;9.00;96.70;;;;;;5061982;28;20588;-69
2022/11/21 06:53:34;;;;;;;4.90;3.30;;;9.00;96.70;;;;;;5059129;28;20052;-69
2022/11/21 06:56:03;;;;;;;5.95;3.13;;;9.10;96.70;;;;;;5059442;28;20473;-69
2022/11/21 06:58:31;;;;;;;5.43;3.00;;;9.00;96.70;;;;;;5060827;28;20527;-69
2022/11/21 07:01:04;;;;;;;6.70;3.10;;;9.00;96.70;;;;;;5060075;28;20126;-69
2022/11/21 07:03:33;;;;;;;8.38;3.95;;;9.00;96.70;;;;;;5060163;28;20762;-69
2022/11/21 07:06:01;;;;;;;7.18;4.18;;;9.00;96.70;;;;;;5062982;28;20063;-71
2022/11/21 07:08:34;;;;;;;6.72;3.95;;;8.90;96.70;;;;;;5062369;28;20406;-69
2022/11/21 07:11:04;;;;;;;6.85;3.88;;;9.00;96.70;;;;;;5056664;28;20068;-69
2022/11/21 07:13:52;;;;;;;7.43;4.07;;;9.10;96.70;;;;;;5061508;28;20119;-69
2022/11/21 07:16:20;;;;;;;7.65;3.88;;;9.10;96.70;;;;;;5062721;28;20044;-69
2022/11/21 07:18:48;;;;;;;6.40;3.13;;;9.20;96.70;;;;;;5064222;28;20071;-69
2022/11/21 07:21:16;;;;;;;5.72;3.15;;;9.10;96.70;;;;;;5063790;28;20049;-69
2022/11/21 07:23:47;;;;;;;8.43;3.17;;;9.10;96.70;;;;;;5063150;28;20040;-69
2022/11/21 07:26:15;;;;;;;4.75;2.78;;;9.20;96.70;;;;;;5062493;28;20072;-69
2022/11/21 07:28:43;;;;;;;4.00;2.83;;;9.20;96.70;;;;;;5063018;28;20041;-70
2022/11/21 07:31:11;;;;;;;4.05;2.83;;;9.10;96.70;;;;;;5062889;28;20529;-69
2022/11/21 07:33:42;;;;;;;4.90;2.97;;;9.10;96.70;;;;;;5063350;28;20465;-70
2022/11/21 07:36:11;;;;;;;4.63;3.08;;;9.20;96.70;;;;;;5063784;28;20048;-70
2022/11/21 07:38:40;;;;;;;4.47;2.92;;;9.40;96.70;;;;;;5062732;28;20124;-69
2022/11/21 07:41:10;;;;;;;5.35;3.33;;;9.50;96.70;;;;;;5063729;28;20082;-70
2022/11/21 07:43:38;;;;;;;7.13;3.72;;;9.50;96.70;;;;;;5064208;28;20051;-70
2022/11/21 07:46:08;;;;;;;6.25;3.88;;;9.40;96.70;;;;;;5060853;28;20037;-69
2022/11/21 07:48:36;;;;;;;6.82;4.28;;;9.50;96.70;;;;;;5056052;28;20044;-70
2022/11/21 07:51:05;;;;;;;5.60;3.35;;;9.70;96.70;;;;;;5061205;28;20138;-69
2022/11/21 07:53:33;;;;;;;5.80;3.85;;;9.70;96.70;;;;;;5062637;28;20448;-69
2022/11/21 07:56:01;;;;;;;4.90;2.92;;;9.80;96.70;;;;;;5063066;28;20047;-70
2022/11/21 07:58:30;;;;;;;3.45;2.60;;;9.80;96.70;;;;;;5061102;28;20102;-69
2022/11/21 08:01:01;;;;;;;4.35;2.75;;;9.90;96.70;;;;;;5062840;28;20048;-70
2022/11/21 08:03:30;;;;;;;5.13;2.88;;;9.90;96.70;;;;;;5045398;28;20110;-69
2022/11/21 08:06:02;;;;;;;4.60;2.92;;;9.80;96.70;;;;;;5061508;28;20494;-69
2022/11/21 08:08:30;;;;;;;5.53;2.72;;;9.90;96.70;;;;;;5062614;28;20135;-69
2022/11/21 08:11:02;;;;;;;5.25;2.92;;;9.80;96.70;;;;;;5062187;28;20048;-70
2022/11/21 08:13:32;;;;;;;17.60;3.42;;;9.70;96.70;;;;;;5062848;28;20117;-70
2022/11/21 08:16:02;;;;;;;5.90;2.72;;;9.70;96.70;;;;;;5061442;28;20052;-69
2022/11/21 08:18:30;;;;;;;4.07;2.35;;;9.80;96.70;;;;;;5063086;28;20447;-69
2022/11/21 08:21:00;;;;;;;4.47;3.00;;;9.90;96.70;;;;;;5062120;28;20513;-70
2022/11/21 08:23:29;;;;;;;5.75;3.00;;;9.90;96.70;;;;;;5063003;28;20041;-70
2022/11/21 08:25:57;;;;;;;6.53;2.45;;;9.90;96.70;;;;;;5063388;28;20562;-69
2022/11/21 08:28:25;;;;;;;3.10;2.42;;;9.90;96.70;;;;;;5062442;28;20037;-70
2022/11/21 08:30:55;;;;;;;4.70;2.72;;;10.00;96.70;;;;;;5061846;28;20553;-70
2022/11/21 08:33:23;;;;;;;4.35;2.72;;;10.00;96.70;;;;;;5057229;28;20059;-70
2022/11/21 08:35:51;;;;;;;4.38;2.92;;;10.10;96.70;;;;;;5062010;28;20484;-70
2022/11/21 08:38:19;;;;;;;4.20;2.70;;;10.20;96.70;;;;;;5055224;28;20040;-70
2022/11/21 08:42:01;;;;;;;6.05;2.50;;;10.30;96.70;;;;;;5063624;28;20041;-71
2022/11/21 08:43:41;;;;;;;2.83;2.42;;;10.40;96.70;;;;;;5062964;28;20068;-72
2022/11/21 08:46:11;;;;;;;3.85;2.60;;;10.50;96.70;;;;;;5062867;28;20051;-72
2022/11/21 08:48:39;;;;;;;3.03;2.30;;;10.60;96.70;;;;;;5045839;28;20047;-71
2022/11/21 08:51:07;;;;;;;3.13;2.13;;;10.70;96.70;;;;;;5063637;28;20040;-72
2022/11/21 08:53:35;;;;;;;2.80;2.20;;;10.90;96.70;;;;;;5060796;28;20041;-71
2022/11/21 08:56:03;;;;;;;5.35;2.28;;;11.00;96.70;;;;;;5063164;28;20043;-71
2022/11/21 08:58:31;;;;;;;3.33;2.45;;;11.00;96.70;;;;;;5061418;28;20568;-71
2022/11/21 09:00:59;;;;;;;3.40;2.70;;;10.90;96.70;;;;;;5059906;28;20114;-72
2022/11/21 09:03:28;;;;;;;3.45;2.33;;;11.00;96.70;;;;;;5060670;28;20557;-72
2022/11/21 09:05:59;;;;;;;3.70;2.47;;;11.00;96.70;;;;;;5060848;28;20049;-72
2022/11/21 09:08:27;;;;;;;3.92;2.00;;;11.20;96.70;;;;;;5056957;28;20056;-72
2022/11/21 09:10:55;;;;;;;4.03;2.20;;;11.30;96.70;;;;;;5059953;28;20044;-71
2022/11/21 09:13:23;;;;;;;4.40;2.35;;;11.30;96.70;;;;;;5060954;28;20118;-72
2022/11/21 09:18:41;;;;;;;4.20;1.83;;;11.30;96.70;;;;;;5061627;28;20125;-71
2022/11/21 09:21:12;;;;;;;2.90;2.10;;;11.40;96.70;;;;;;5060150;28;20444;-71
2022/11/21 09:23:40;;;;;;;3.45;2.08;;;11.40;96.70;;;;;;5054275;28;20127;-71
2022/11/21 09:26:08;;;;;;;4.80;2.15;;;11.30;96.70;;;;;;5060569;28;20046;-72
2022/11/21 09:28:37;;;;;;;4.55;1.70;;;11.40;96.70;;;;;;5062374;28;20076;-72
2022/11/21 09:31:05;;;;;;;4.18;1.80;;;11.50;96.70;;;;;;5061003;28;20044;-71
2022/11/21 09:33:33;;;;;;;2.30;1.33;;;11.60;96.70;;;;;;5060059;28;20052;-72
2022/11/21 09:36:03;;;;;;;2.78;1.60;;;11.70;96.70;;;;;;5061670;28;20075;-72
2022/11/21 09:38:31;;;;;;;3.50;1.70;;;11.80;96.70;;;;;;5062326;28;20123;-73
2022/11/21 09:41:50;;;;;;;2.97;1.75;;;12.00;96.70;;;;;;5059897;28;20048;-72
2022/11/21 09:44:09;;;;;;;4.32;1.95;;;12.00;96.70;;;;;;5062127;28;20054;-72
2022/11/21 09:46:44;;;;;;;2.40;1.70;;;12.10;96.70;;;;;;5060877;28;20180;-72
2022/11/21 09:49:15;;;;;;;5.65;1.95;;;12.20;96.70;;;;;;5060577;28;20048;-72
2022/11/21 09:51:44;;;;;;;3.97;2.03;;;12.40;96.70;;;;;;5059664;28;20071;-72
2022/11/21 09:54:18;;;;;;;4.15;2.20;;;12.50;96.70;;;;;;5043549;28;20233;-71
2022/11/21 09:56:47;;;;;;;3.88;2.00;;;12.60;96.70;;;;;;5057218;28;20040;-71
2022/11/21 09:59:31;;;;;;;2.28;1.80;;;12.60;96.70;;;;;;5059822;28;20029;-71
2022/11/21 10:02:00;;;;;;;2.00;1.80;;;12.70;96.70;;;;;;5060453;28;20122;-71
2022/11/21 10:04:28;;;;;;;3.42;2.17;;;12.80;96.70;;;;;;5052435;28;20548;-71
2022/11/21 10:07:03;;;;;;;3.45;2.22;;;12.90;96.70;;;;;;5056314;28;20732;-71
2022/11/21 10:09:43;;;;;;;3.53;2.13;;;13.00;96.70;;;;;;5060699;28;20052;-71
2022/11/21 10:12:36;;;;;;;4.80;2.25;;;13.00;96.70;;;;;;5061994;28;20047;-71
2022/11/21 10:15:18;;;;;;;2.08;1.75;;;13.20;96.70;;;;;;5057995;28;20123;-71
2022/11/21 10:17:56;;;;;;;4.13;1.98;;;13.30;96.70;;;;;;5059226;28;20677;-71
2022/11/21 10:20:38;;;;;;;4.85;2.15;;;13.40;96.70;;;;;;5062137;28;20052;-71
2022/11/21 10:23:26;;;;;;;3.00;2.03;;;13.30;96.70;;;;;;5061286;28;20051;-71
2022/11/21 10:25:56;;;;;;;2.85;1.90;;;13.20;96.70;;;;;;5061825;28;20048;-71
2022/11/21 10:28:31;;;;;;;2.90;2.10;;;13.10;96.70;;;;;;5061191;28;20048;-71
2022/11/21 10:31:00;;;;;;;2.58;1.77;;;13.20;96.70;;;;;;5055791;28;20051;-71
2022/11/21 10:33:39;;;;;;;4.85;2.08;;;13.30;96.70;;;;;;5060858;28;20047;-70
2022/11/21 10:36:19;;;;;;;3.65;2.08;;;13.30;96.70;;;;;;5061891;28;20044;-71
2022/11/21 10:38:51;;;;;;;2.63;2.10;;;13.30;96.70;;;;;;5059537;28;20044;-71
2022/11/21 10:41:34;;;;;;;2.88;1.90;;;13.40;96.70;;;;;;5064741;28;20068;-70
2022/11/21 10:46:55;;;;;;;3.42;2.40;;;13.60;96.70;;;;;;5064652;28;20050;-70
2022/11/21 10:49:24;;;;;;;3.45;2.13;;;13.70;96.70;;;;;;5062076;28;20040;-71
2022/11/21 10:52:00;;;;;;;2.80;2.50;;;13.70;96.70;;;;;;5064354;28;20144;-70
2022/11/21 10:54:32;;;;;;;3.33;2.30;;;13.90;96.70;;;;;;5062823;28;20059;-71
2022/11/21 10:57:06;;;;;;;4.75;2.33;;;14.10;96.70;;;;;;5063477;28;20163;-71
2022/11/21 10:59:34;;;;;;;2.90;2.13;;;14.10;96.70;;;;;;5047756;28;20136;-71
2022/11/21 11:02:22;;;;;;;3.60;2.17;;;14.10;96.70;;;;;;5045676;28;20541;-71
2022/11/21 11:05:20;;;;;;;2.95;2.10;;;14.10;96.70;;;;;;5058023;28;20139;-71
2022/11/21 11:08:06;;;;;;;3.75;2.10;;;14.20;96.70;;;;;;5061606;28;20137;-72
2022/11/21 11:10:38;;;;;;;3.40;2.40;;;14.30;96.70;;;;;;5059561;28;20044;-72
2022/11/21 11:16:20;;;;;;;4.47;2.35;;;14.20;96.70;;;;;;5057417;28;20129;-71
2022/11/21 11:18:55;;;;;;;4.55;2.00;;;14.30;96.70;;;;;;5065130;28;20040;-70
2022/11/21 11:21:26;;;;;;;4.47;2.45;;;14.20;96.70;;;;;;5063859;28;20041;-71
2022/11/21 11:24:05;;;;;;;3.70;2.03;;;14.20;96.70;;;;;;5052487;28;20044;-69
2022/11/21 11:26:55;;;;;;;3.83;2.03;;;14.30;96.70;;;;;;5062918;28;20489;-71
2022/11/21 11:29:25;;;;;;;3.28;2.03;;;14.30;96.70;;;;;;5064646;28;20347;-70
2022/11/21 11:31:56;;;;;;;3.88;2.00;;;14.30;96.70;;;;;;5062750;28;20898;-70
2022/11/21 11:34:27;;;;;;;3.63;2.20;;;14.40;96.70;;;;;;5064816;28;20256;-70
2022/11/21 11:37:03;;;;;;;5.47;2.03;;;14.40;96.70;;;;;;5063436;28;20042;-71
2022/11/21 11:39:38;;;;;;;4.13;2.30;;;14.40;96.70;;;;;;5064134;28;20036;-71
2022/11/21 11:48:38;;;;;;;4.47;2.55;;;14.30;96.70;;;;;;5063976;28;20064;-70
2022/11/21 11:51:30;;;;;;;5.00;2.85;;;14.40;96.70;;;;;;5062062;28;20402;-70
2022/11/21 11:54:02;;;;;;;4.47;2.97;;;14.50;96.70;;;;;;5063354;28;20490;-71
2022/11/21 11:56:33;;;;;;;3.83;2.78;;;14.60;96.70;;;;;;5062156;28;20127;-70
2022/11/21 11:59:10;;;;;;;3.60;2.80;;;14.60;96.70;;;;;;5063741;28;20155;-71
2022/11/21 12:01:44;;;;;;;6.65;4.20;;;14.60;96.70;;;;;;5062275;28;20539;-71
2022/11/21 12:04:18;;;;;;;5.78;3.85;;;14.70;96.70;;;;;;5080535;28;20051;-71
2022/11/21 12:06:51;;;;;;;3.60;2.90;;;14.80;96.70;;;;;;5064239;28;20124;-69
2022/11/21 12:09:47;;;;;;;4.82;2.97;;;14.80;96.70;;;;;;5066436;28;20056;-70
2022/11/21 12:12:27;;;;;;;3.22;2.67;;;14.90;96.70;;;;;;5081219;28;20052;-69
2022/11/21 12:18:08;;;;;;;6.00;3.17;;;14.90;96.70;;;;;;5079051;28;20159;-69
2022/11/21 12:20:45;;;;;;;3.67;2.58;;;15.00;96.70;;;;;;5080292;28;20095;-70
2022/11/21 12:23:14;;;;;;;3.47;2.38;;;15.00;96.70;;;;;;5062635;28;20051;-70
2022/11/21 12:25:53;;;;;;;4.15;2.25;;;14.90;96.70;;;;;;5080663;28;20575;-70
2022/11/21 12:28:27;;;;;;;4.47;3.10;;;14.80;96.70;;;;;;5062634;28;20043;-70
2022/11/21 12:31:12;;;;;;;5.88;3.70;;;14.70;96.70;;;;;;5080343;28;20134;-70
2022/11/21 12:33:50;;;;;;;5.95;3.72;;;14.60;96.70;;;;;;5080058;28;20048;-71
2022/11/21 12:36:31;;;;;;;6.22;3.90;;;14.50;96.70;;;;;;5061775;28;20056;-71
2022/11/21 12:39:35;;;;;;;8.43;4.22;;;14.40;96.70;;;;;;5061296;28;20524;-71
2022/11/21 12:45:19;;;;;;;13.75;8.75;;;14.30;96.70;;;;;;5063083;28;20045;-70
2022/11/21 12:54:59;;;;;;;10.55;6.45;;;13.90;96.70;;;;;;5059688;28;20080;-71
2022/11/21 12:57:40;;;;;;;18.40;10.73;;;13.90;96.70;;;;;;5056598;28;20049;-71
2022/11/21 13:00:14;;;;;;;19.48;12.80;;;13.90;96.70;;;;;;5062506;28;20044;-70
2022/11/21 13:03:24;;;;;;;26.70;16.20;;;13.90;96.70;;;;;;5060825;28;20096;-71
2022/11/21 13:05:55;;;;;;;35.10;20.63;;;13.90;96.70;;;;;;5054050;28;20118;-71
2022/11/21 13:08:27;;;;;;;23.90;15.35;;;13.90;96.70;;;;;;5062058;28;20068;-70
2022/11/21 13:13:51;;;;;;;14.57;9.82;;;13.90;96.70;;;;;;5062308;28;20057;-71
2022/11/21 13:16:38;;;;;;;19.80;12.82;;;13.80;96.70;;;;;;5060219;28;20183;-70
2022/11/21 13:19:20;;;;;;;16.88;9.68;;;13.70;96.70;;;;;;5061732;28;20626;-71
2022/11/21 13:21:49;;;;;;;14.75;9.60;;;13.80;96.70;;;;;;5054858;28;20059;-71
2022/11/21 13:24:55;;;;;;;11.20;7.53;;;13.70;96.70;;;;;;5062820;28;20537;-71
2022/11/21 13:27:28;;;;;;;7.10;5.53;;;13.70;96.70;;;;;;4991465;28;20042;-69
2022/11/21 13:30:22;;;;;;;9.18;5.65;;;13.80;96.70;;;;;;5049932;28;20106;-69
2022/11/21 13:32:51;;;;;;;8.60;6.10;;;13.90;96.70;;;;;;5060936;28;20457;-69
2022/11/21 13:36:04;;;;;;;8.10;6.28;;;13.90;96.70;;;;;;5052235;28;20057;-69
2022/11/21 13:39:06;;;;;;;9.85;8.02;;;13.80;96.70;;;;;;5025111;28;20048;-69
2022/11/21 13:45:39;;;;;;;9.27;7.10;;;13.70;96.70;;;;;;5061798;28;20082;-71
2022/11/21 13:48:35;;;;;;;10.65;6.57;;;13.60;96.70;;;;;;5054792;28;20131;-71
2022/11/21 13:51:34;;;;;;;7.88;5.80;;;13.60;96.70;;;;;;5060838;28;20048;-69
2022/11/21 13:54:36;;;;;;;7.47;5.00;;;13.60;96.70;;;;;;5059246;28;20494;-69
2022/11/21 13:57:28;;;;;;;7.47;4.63;;;13.50;96.70;;;;;;5060334;28;20162;-69
2022/11/21 14:00:16;;;;;;;7.32;4.75;;;13.40;96.70;;;;;;5058558;28;20044;-69